sensor_id;sensor_type;location;lat;lon;timestamp;pressure;altitude;pressure_sealevel;temperature;humidity
61109;BME280;46995;55.740;37.402;2023-04-27T00:01:14;98766.00;;;9.26;73.44
61109;BME280;46995;55.740;37.402;2023-04-27T00:03:40;98755.91;;;9.22;73.43
61109;BME280;46995;55.740;37.402;2023-04-27T00:06:06;98758.84;;;9.19;73.73
61109;BME280;46995;55.740;37.402;2023-04-27T00:08:32;98763.25;;;9.18;73.62
61109;BME280;46995;55.740;37.402;2023-04-27T00:10:58;98767.84;;;9.16;73.55
61109;BME280;46995;55.740;37.402;2023-04-27T00:13:23;98763.69;;;9.14;73.67
61109;BME280;46995;55.740;37.402;2023-04-27T00:15:49;98764.78;;;9.11;73.74
61109;BME280;46995;55.740;37.402;2023-04-27T00:18:15;98761.50;;;9.09;73.58
61109;BME280;46995;55.740;37.402;2023-04-27T00:20:40;98759.81;;;9.08;73.37
61109;BME280;46995;55.740;37.402;2023-04-27T00:23:06;98767.84;;;9.07;74.00
61109;BME280;46995;55.740;37.402;2023-04-27T00:25:32;98771.31;;;9.07;74.05
61109;BME280;46995;55.740;37.402;2023-04-27T00:27:57;98771.44;;;9.06;74.20
61109;BME280;46995;55.740;37.402;2023-04-27T00:30:26;98762.59;;;9.07;74.30
61109;BME280;46995;55.740;37.402;2023-04-27T00:32:59;98761.75;;;9.06;74.50
61109;BME280;46995;55.740;37.402;2023-04-27T00:35:25;98765.38;;;9.05;74.30
61109;BME280;46995;55.740;37.402;2023-04-27T00:37:52;98761.75;;;9.06;74.54
61109;BME280;46995;55.740;37.402;2023-04-27T00:40:19;98768.16;;;9.04;74.29
61109;BME280;46995;55.740;37.402;2023-04-27T00:42:46;98762.34;;;9.00;74.39
61109;BME280;46995;55.740;37.402;2023-04-27T00:45:11;98758.03;;;8.99;74.76
61109;BME280;46995;55.740;37.402;2023-04-27T00:47:37;98758.31;;;8.96;74.84
61109;BME280;46995;55.740;37.402;2023-04-27T00:50:03;98762.59;;;8.97;74.85
61109;BME280;46995;55.740;37.402;2023-04-27T00:52:33;98768.00;;;8.96;74.95
61109;BME280;46995;55.740;37.402;2023-04-27T00:54:58;98757.63;;;8.94;74.83
61109;BME280;46995;55.740;37.402;2023-04-27T00:57:27;98767.16;;;8.95;74.70
61109;BME280;46995;55.740;37.402;2023-04-27T00:59:52;98759.28;;;8.95;74.37
61109;BME280;46995;55.740;37.402;2023-04-27T01:02:18;98756.63;;;8.95;74.58
61109;BME280;46995;55.740;37.402;2023-04-27T01:04:44;98767.16;;;8.95;74.51
61109;BME280;46995;55.740;37.402;2023-04-27T01:07:11;98771.47;;;8.96;74.84
61109;BME280;46995;55.740;37.402;2023-04-27T01:09:36;98775.66;;;8.99;75.21
61109;BME280;46995;55.740;37.402;2023-04-27T01:12:02;98776.19;;;9.02;75.11
61109;BME280;46995;55.740;37.402;2023-04-27T01:14:27;98774.25;;;9.04;74.49
61109;BME280;46995;55.740;37.402;2023-04-27T01:16:53;98769.81;;;9.05;74.46
61109;BME280;46995;55.740;37.402;2023-04-27T01:19:18;98767.31;;;9.03;73.91
61109;BME280;46995;55.740;37.402;2023-04-27T01:21:44;98768.28;;;9.02;73.81
61109;BME280;46995;55.740;37.402;2023-04-27T01:24:09;98769.25;;;9.01;74.13
61109;BME280;46995;55.740;37.402;2023-04-27T01:26:36;98760.69;;;8.99;74.23
61109;BME280;46995;55.740;37.402;2023-04-27T01:29:02;98755.66;;;8.96;74.13
61109;BME280;46995;55.740;37.402;2023-04-27T01:31:27;98754.31;;;8.92;74.38
61109;BME280;46995;55.740;37.402;2023-04-27T01:33:53;98762.50;;;8.89;74.45
61109;BME280;46995;55.740;37.402;2023-04-27T01:36:19;98757.66;;;8.84;74.86
61109;BME280;46995;55.740;37.402;2023-04-27T01:38:44;98763.03;;;8.83;74.93
61109;BME280;46995;55.740;37.402;2023-04-27T01:41:11;98762.34;;;8.81;74.63
61109;BME280;46995;55.740;37.402;2023-04-27T01:43:37;98758.47;;;8.75;74.89
61109;BME280;46995;55.740;37.402;2023-04-27T01:46:06;98761.25;;;8.74;75.01
61109;BME280;46995;55.740;37.402;2023-04-27T01:48:32;98762.34;;;8.71;74.95
61109;BME280;46995;55.740;37.402;2023-04-27T01:50:58;98763.47;;;8.69;74.39
61109;BME280;46995;55.740;37.402;2023-04-27T01:53:23;98752.78;;;8.61;74.97
61109;BME280;46995;55.740;37.402;2023-04-27T01:55:49;98771.50;;;8.67;75.09
61109;BME280;46995;55.740;37.402;2023-04-27T01:58:14;98767.34;;;8.65;75.25
61109;BME280;46995;55.740;37.402;2023-04-27T02:00:43;98769.28;;;8.63;75.23
61109;BME280;46995;55.740;37.402;2023-04-27T02:03:08;98778.28;;;8.60;75.38
61109;BME280;46995;55.740;37.402;2023-04-27T02:05:34;98765.25;;;8.59;75.60
61109;BME280;46995;55.740;37.402;2023-04-27T02:08:00;98775.66;;;8.60;75.55
61109;BME280;46995;55.740;37.402;2023-04-27T02:10:26;98770.50;;;8.59;75.80
61109;BME280;46995;55.740;37.402;2023-04-27T02:12:55;98783.66;;;8.59;76.01
61109;BME280;46995;55.740;37.402;2023-04-27T02:15:21;98788.69;;;8.62;75.62
61109;BME280;46995;55.740;37.402;2023-04-27T02:17:47;98781.63;;;8.62;76.01
61109;BME280;46995;55.740;37.402;2023-04-27T02:20:12;98795.63;;;8.63;76.02
61109;BME280;46995;55.740;37.402;2023-04-27T02:22:41;98799.22;;;8.62;75.97
61109;BME280;46995;55.740;37.402;2023-04-27T02:25:10;98791.31;;;8.62;76.02
61109;BME280;46995;55.740;37.402;2023-04-27T02:27:36;98791.19;;;8.63;76.04
61109;BME280;46995;55.740;37.402;2023-04-27T02:30:07;98797.25;;;8.64;76.04
61109;BME280;46995;55.740;37.402;2023-04-27T02:32:33;98801.56;;;8.65;76.21
61109;BME280;46995;55.740;37.402;2023-04-27T02:34:59;98804.19;;;8.65;76.27
61109;BME280;46995;55.740;37.402;2023-04-27T02:37:27;98802.25;;;8.67;76.04
61109;BME280;46995;55.740;37.402;2023-04-27T02:39:52;98803.94;;;8.68;76.09
61109;BME280;46995;55.740;37.402;2023-04-27T02:42:18;98814.16;;;8.71;75.85
61109;BME280;46995;55.740;37.402;2023-04-27T02:44:43;98806.13;;;8.72;75.95
61109;BME280;46995;55.740;37.402;2023-04-27T02:47:10;98806.69;;;8.76;76.04
61109;BME280;46995;55.740;37.402;2023-04-27T02:49:36;98807.38;;;8.78;76.00
61109;BME280;46995;55.740;37.402;2023-04-27T02:52:02;98818.59;;;8.80;76.03
61109;BME280;46995;55.740;37.402;2023-04-27T02:54:28;98816.66;;;8.82;75.91
61109;BME280;46995;55.740;37.402;2023-04-27T02:56:53;98814.75;;;8.84;76.37
61109;BME280;46995;55.740;37.402;2023-04-27T02:59:19;98817.78;;;8.89;76.28
61109;BME280;46995;55.740;37.402;2023-04-27T03:01:45;98823.47;;;8.94;76.51
61109;BME280;46995;55.740;37.402;2023-04-27T03:04:11;98817.91;;;8.97;76.26
61109;BME280;46995;55.740;37.402;2023-04-27T03:06:39;98817.50;;;9.02;76.08
61109;BME280;46995;55.740;37.402;2023-04-27T03:09:05;98823.16;;;9.07;75.89
61109;BME280;46995;55.740;37.402;2023-04-27T03:11:31;98827.03;;;9.12;75.89
61109;BME280;46995;55.740;37.402;2023-04-27T03:13:57;98830.38;;;9.14;75.38
61109;BME280;46995;55.740;37.402;2023-04-27T03:16:22;98831.06;;;9.16;75.36
61109;BME280;46995;55.740;37.402;2023-04-27T03:18:48;98834.94;;;9.22;75.60
61109;BME280;46995;55.740;37.402;2023-04-27T03:21:13;98837.97;;;9.27;75.59
61109;BME280;46995;55.740;37.402;2023-04-27T03:23:41;98838.25;;;9.33;75.31
61109;BME280;46995;55.740;37.402;2023-04-27T03:26:07;98848.22;;;9.40;75.20
61109;BME280;46995;55.740;37.402;2023-04-27T03:28:33;98843.22;;;9.46;74.86
61109;BME280;46995;55.740;37.402;2023-04-27T03:30:58;98844.31;;;9.53;74.74
61109;BME280;46995;55.740;37.402;2023-04-27T03:33:24;98839.31;;;9.60;74.68
61109;BME280;46995;55.740;37.402;2023-04-27T03:35:55;98842.06;;;9.68;74.37
61109;BME280;46995;55.740;37.402;2023-04-27T03:38:21;98849.13;;;9.77;74.31
61109;BME280;46995;55.740;37.402;2023-04-27T03:40:47;98856.16;;;9.86;74.12
61109;BME280;46995;55.740;37.402;2023-04-27T03:43:12;98851.97;;;9.93;73.90
61109;BME280;46995;55.740;37.402;2023-04-27T03:45:39;98849.44;;;10.01;73.86
61109;BME280;46995;55.740;37.402;2023-04-27T03:48:05;98854.84;;;10.09;73.78
61109;BME280;46995;55.740;37.402;2023-04-27T03:50:32;98832.06;;;10.08;73.48
61109;BME280;46995;55.740;37.402;2023-04-27T03:52:58;98842.69;;;10.26;73.48
61109;BME280;46995;55.740;37.402;2023-04-27T03:55:25;98847.94;;;10.36;73.73
61109;BME280;46995;55.740;37.402;2023-04-27T03:57:51;98854.66;;;10.48;73.51
61109;BME280;46995;55.740;37.402;2023-04-27T04:00:17;98856.13;;;10.60;73.47
61109;BME280;46995;55.740;37.402;2023-04-27T04:02:43;98849.94;;;10.69;73.20
61109;BME280;46995;55.740;37.402;2023-04-27T04:05:09;98857.63;;;10.80;73.14
61109;BME280;46995;55.740;37.402;2023-04-27T04:07:35;98867.47;;;10.88;72.37
61109;BME280;46995;55.740;37.402;2023-04-27T04:10:01;98863.41;;;10.93;73.02
61109;BME280;46995;55.740;37.402;2023-04-27T04:12:27;98856.88;;;11.05;72.67
61109;BME280;46995;55.740;37.402;2023-04-27T04:14:52;98869.03;;;11.16;72.72
61109;BME280;46995;55.740;37.402;2023-04-27T04:17:18;98870.63;;;11.27;72.24
61109;BME280;46995;55.740;37.402;2023-04-27T04:19:45;98869.69;;;11.36;72.07
61109;BME280;46995;55.740;37.402;2023-04-27T04:22:11;98868.47;;;11.48;71.67
61109;BME280;46995;55.740;37.402;2023-04-27T04:24:37;98870.88;;;11.59;71.52
61109;BME280;46995;55.740;37.402;2023-04-27T04:27:04;98867.97;;;11.70;71.09
61109;BME280;46995;55.740;37.402;2023-04-27T04:29:30;98864.28;;;11.81;70.51
61109;BME280;46995;55.740;37.402;2023-04-27T04:31:56;98874.41;;;11.94;70.28
61109;BME280;46995;55.740;37.402;2023-04-27T04:34:21;98874.16;;;12.05;70.13
61109;BME280;46995;55.740;37.402;2023-04-27T04:36:47;98879.19;;;12.16;69.29
61109;BME280;46995;55.740;37.402;2023-04-27T04:39:17;98874.59;;;12.26;69.21
61109;BME280;46995;55.740;37.402;2023-04-27T04:41:46;98872.66;;;12.36;68.70
61109;BME280;46995;55.740;37.402;2023-04-27T04:44:12;98878.63;;;12.46;68.18
61109;BME280;46995;55.740;37.402;2023-04-27T04:46:38;98879.81;;;12.52;67.85
61109;BME280;46995;55.740;37.402;2023-04-27T04:49:03;98873.06;;;12.57;67.72
61109;BME280;46995;55.740;37.402;2023-04-27T04:51:29;98873.25;;;12.64;67.33
61109;BME280;46995;55.740;37.402;2023-04-27T04:53:55;98873.94;;;12.74;67.17
61109;BME280;46995;55.740;37.402;2023-04-27T04:56:22;98877.44;;;12.83;67.01
61109;BME280;46995;55.740;37.402;2023-04-27T04:58:47;98881.94;;;12.90;66.81
61109;BME280;46995;55.740;37.402;2023-04-27T05:01:13;98880.31;;;12.97;66.57
61109;BME280;46995;55.740;37.402;2023-04-27T05:03:40;98883.78;;;13.06;66.15
61109;BME280;46995;55.740;37.402;2023-04-27T05:06:06;98886.47;;;13.14;65.97
61109;BME280;46995;55.740;37.402;2023-04-27T05:08:31;98882.31;;;13.20;65.74
61109;BME280;46995;55.740;37.402;2023-04-27T05:10:57;98888.63;;;13.27;65.33
61109;BME280;46995;55.740;37.402;2023-04-27T05:13:23;98893.13;;;13.34;65.32
61109;BME280;46995;55.740;37.402;2023-04-27T05:15:52;98901.06;;;13.42;65.01
61109;BME280;46995;55.740;37.402;2023-04-27T05:18:18;98895.13;;;13.48;64.88
61109;BME280;46995;55.740;37.402;2023-04-27T05:20:43;98903.41;;;13.53;64.94
61109;BME280;46995;55.740;37.402;2023-04-27T05:23:09;98897.44;;;13.60;64.38
61109;BME280;46995;55.740;37.402;2023-04-27T05:25:35;98899.09;;;13.69;64.28
61109;BME280;46995;55.740;37.402;2023-04-27T05:28:06;98888.28;;;13.78;64.32
61109;BME280;46995;55.740;37.402;2023-04-27T05:30:33;98892.75;;;13.86;63.75
61109;BME280;46995;55.740;37.402;2023-04-27T05:32:58;98892.09;;;13.92;63.70
61109;BME280;46995;55.740;37.402;2023-04-27T05:35:24;98901.03;;;13.99;63.25
61109;BME280;46995;55.740;37.402;2023-04-27T05:37:49;98897.84;;;14.04;63.10
61109;BME280;46995;55.740;37.402;2023-04-27T05:40:15;98896.34;;;14.09;62.84
61109;BME280;46995;55.740;37.402;2023-04-27T05:42:40;98890.38;;;14.15;63.22
61109;BME280;46995;55.740;37.402;2023-04-27T05:45:06;98892.19;;;14.23;62.89
61109;BME280;46995;55.740;37.402;2023-04-27T05:47:32;98886.34;;;14.27;62.41
61109;BME280;46995;55.740;37.402;2023-04-27T05:49:57;98888.00;;;14.36;62.14
61109;BME280;46995;55.740;37.402;2023-04-27T05:52:23;98900.25;;;14.46;62.44
61109;BME280;46995;55.740;37.402;2023-04-27T05:54:55;98881.13;;;14.50;61.92
61109;BME280;46995;55.740;37.402;2023-04-27T05:57:21;98889.25;;;14.57;62.20
61109;BME280;46995;55.740;37.402;2023-04-27T05:59:47;98885.91;;;14.63;62.03
61109;BME280;46995;55.740;37.402;2023-04-27T06:02:12;98897.50;;;14.70;61.80
61109;BME280;46995;55.740;37.402;2023-04-27T06:04:41;98895.63;;;14.78;61.50
61109;BME280;46995;55.740;37.402;2023-04-27T06:07:10;98894.75;;;14.86;60.47
61109;BME280;46995;55.740;37.402;2023-04-27T06:09:36;98900.69;;;14.96;60.64
61109;BME280;46995;55.740;37.402;2023-04-27T06:12:02;98900.63;;;15.04;61.33
61109;BME280;46995;55.740;37.402;2023-04-27T06:14:29;98899.56;;;15.13;60.48
61109;BME280;46995;55.740;37.402;2023-04-27T06:16:54;98898.03;;;15.19;59.96
61109;BME280;46995;55.740;37.402;2023-04-27T06:19:20;98900.16;;;15.23;60.14
61109;BME280;46995;55.740;37.402;2023-04-27T06:21:45;98897.78;;;15.28;59.82
61109;BME280;46995;55.740;37.402;2023-04-27T06:24:11;98895.25;;;15.35;59.41
61109;BME280;46995;55.740;37.402;2023-04-27T06:26:37;98902.16;;;15.44;59.70
61109;BME280;46995;55.740;37.402;2023-04-27T06:29:02;98902.28;;;15.51;58.25
61109;BME280;46995;55.740;37.402;2023-04-27T06:31:28;98904.94;;;15.59;59.43
61109;BME280;46995;55.740;37.402;2023-04-27T06:33:54;98905.00;;;15.65;57.55
61109;BME280;46995;55.740;37.402;2023-04-27T06:36:19;98900.19;;;15.69;57.65
61109;BME280;46995;55.740;37.402;2023-04-27T06:38:45;98904.78;;;15.75;57.50
61109;BME280;46995;55.740;37.402;2023-04-27T06:41:18;98909.38;;;15.81;58.73
61109;BME280;46995;55.740;37.402;2023-04-27T06:43:44;98907.81;;;15.87;56.99
61109;BME280;46995;55.740;37.402;2023-04-27T06:46:09;98899.94;;;15.93;56.54
61109;BME280;46995;55.740;37.402;2023-04-27T06:48:35;98905.19;;;16.01;56.41
61109;BME280;46995;55.740;37.402;2023-04-27T06:51:00;98904.44;;;16.07;56.82
61109;BME280;46995;55.740;37.402;2023-04-27T06:53:26;98905.38;;;16.15;56.48
61109;BME280;46995;55.740;37.402;2023-04-27T06:55:51;98908.59;;;16.25;56.38
61109;BME280;46995;55.740;37.402;2023-04-27T06:58:17;98904.81;;;16.34;55.26
61109;BME280;46995;55.740;37.402;2023-04-27T07:00:43;98905.09;;;16.39;53.92
61109;BME280;46995;55.740;37.402;2023-04-27T07:03:09;98897.38;;;16.44;54.44
61109;BME280;46995;55.740;37.402;2023-04-27T07:05:35;98910.78;;;16.50;55.46
61109;BME280;46995;55.740;37.402;2023-04-27T07:08:00;98909.88;;;16.58;53.33
61109;BME280;46995;55.740;37.402;2023-04-27T07:10:26;98904.84;;;16.63;54.37
61109;BME280;46995;55.740;37.402;2023-04-27T07:12:51;98909.81;;;16.66;53.79
61109;BME280;46995;55.740;37.402;2023-04-27T07:15:17;98896.75;;;16.71;54.80
61109;BME280;46995;55.740;37.402;2023-04-27T07:17:43;98895.34;;;16.75;54.17
61109;BME280;46995;55.740;37.402;2023-04-27T07:20:08;98897.09;;;16.83;54.19
61109;BME280;46995;55.740;37.402;2023-04-27T07:22:34;98903.78;;;16.93;52.98
61109;BME280;46995;55.740;37.402;2023-04-27T07:24:59;98905.69;;;17.00;53.96
61109;BME280;46995;55.740;37.402;2023-04-27T07:27:25;98897.97;;;17.05;52.91
61109;BME280;46995;55.740;37.402;2023-04-27T07:29:51;98904.56;;;17.09;53.58
61109;BME280;46995;55.740;37.402;2023-04-27T07:32:17;98903.38;;;17.11;54.76
61109;BME280;46995;55.740;37.402;2023-04-27T07:34:43;98901.75;;;17.17;51.97
61109;BME280;46995;55.740;37.402;2023-04-27T07:37:08;98906.34;;;17.23;52.54
61109;BME280;46995;55.740;37.402;2023-04-27T07:39:34;98909.28;;;17.28;52.55
61109;BME280;46995;55.740;37.402;2023-04-27T07:42:01;98910.16;;;17.35;53.38
61109;BME280;46995;55.740;37.402;2023-04-27T07:44:27;98910.59;;;17.38;52.47
61109;BME280;46995;55.740;37.402;2023-04-27T07:46:53;98918.88;;;17.44;52.09
61109;BME280;46995;55.740;37.402;2023-04-27T07:49:19;98915.63;;;17.48;52.55
61109;BME280;46995;55.740;37.402;2023-04-27T07:51:44;98913.59;;;17.50;52.45
61109;BME280;46995;55.740;37.402;2023-04-27T07:54:10;98926.00;;;17.58;52.47
61109;BME280;46995;55.740;37.402;2023-04-27T07:56:36;98923.63;;;17.63;51.94
61109;BME280;46995;55.740;37.402;2023-04-27T07:59:01;98927.38;;;17.68;50.89
61109;BME280;46995;55.740;37.402;2023-04-27T08:01:27;98931.50;;;17.71;52.00
61109;BME280;46995;55.740;37.402;2023-04-27T08:03:52;98923.28;;;17.72;52.04
61109;BME280;46995;55.740;37.402;2023-04-27T08:06:18;98923.34;;;17.79;52.34
61109;BME280;46995;55.740;37.402;2023-04-27T08:08:44;98923.78;;;17.83;51.21
61109;BME280;46995;55.740;37.402;2023-04-27T08:11:10;98916.84;;;17.88;51.13
61109;BME280;46995;55.740;37.402;2023-04-27T08:13:36;98911.56;;;17.95;51.40
61109;BME280;46995;55.740;37.402;2023-04-27T08:16:02;98912.63;;;18.00;50.96
61109;BME280;46995;55.740;37.402;2023-04-27T08:18:27;98909.38;;;18.05;50.46
61109;BME280;46995;55.740;37.402;2023-04-27T08:20:53;98911.63;;;18.08;50.63
61109;BME280;46995;55.740;37.402;2023-04-27T08:23:20;98916.41;;;18.12;50.82
61109;BME280;46995;55.740;37.402;2023-04-27T08:25:45;98918.47;;;18.17;50.21
61109;BME280;46995;55.740;37.402;2023-04-27T08:28:11;98917.69;;;18.23;52.31
61109;BME280;46995;55.740;37.402;2023-04-27T08:30:37;98915.91;;;18.30;50.97
61109;BME280;46995;55.740;37.402;2023-04-27T08:33:03;98922.75;;;18.39;50.66
61109;BME280;46995;55.740;37.402;2023-04-27T08:35:28;98920.16;;;18.52;50.70
61109;BME280;46995;55.740;37.402;2023-04-27T08:37:54;98914.06;;;18.65;49.79
61109;BME280;46995;55.740;37.402;2023-04-27T08:40:19;98911.63;;;18.70;50.62
61109;BME280;46995;55.740;37.402;2023-04-27T08:42:55;98913.47;;;18.70;50.46
61109;BME280;46995;55.740;37.402;2023-04-27T08:45:22;98910.00;;;18.76;50.42
61109;BME280;46995;55.740;37.402;2023-04-27T08:47:48;98917.03;;;18.83;50.44
61109;BME280;46995;55.740;37.402;2023-04-27T08:50:14;98913.75;;;18.88;50.64
61109;BME280;46995;55.740;37.402;2023-04-27T08:52:42;98915.41;;;18.89;50.51
61109;BME280;46995;55.740;37.402;2023-04-27T08:55:07;98918.09;;;18.89;50.34
61109;BME280;46995;55.740;37.402;2023-04-27T08:57:33;98916.22;;;18.89;50.47
61109;BME280;46995;55.740;37.402;2023-04-27T08:59:59;98930.19;;;18.85;49.73
61109;BME280;46995;55.740;37.402;2023-04-27T09:02:25;98922.59;;;18.82;51.01
61109;BME280;46995;55.740;37.402;2023-04-27T09:04:54;98923.00;;;18.79;48.59
61109;BME280;46995;55.740;37.402;2023-04-27T09:07:21;98921.94;;;18.80;49.82
61109;BME280;46995;55.740;37.402;2023-04-27T09:09:47;98909.63;;;18.85;50.14
61109;BME280;46995;55.740;37.402;2023-04-27T09:12:17;98929.41;;;18.91;50.34
61109;BME280;46995;55.740;37.402;2023-04-27T09:14:54;98914.59;;;18.95;50.48
61109;BME280;46995;55.740;37.402;2023-04-27T09:17:23;98916.69;;;18.99;48.94
61109;BME280;46995;55.740;37.402;2023-04-27T09:19:48;98916.28;;;19.02;48.24
61109;BME280;46995;55.740;37.402;2023-04-27T09:22:17;98906.81;;;19.07;49.53
61109;BME280;46995;55.740;37.402;2023-04-27T09:24:49;98910.72;;;19.11;49.57
61109;BME280;46995;55.740;37.402;2023-04-27T09:27:19;98915.09;;;19.18;49.60
61109;BME280;46995;55.740;37.402;2023-04-27T09:29:45;98910.97;;;19.22;48.58
61109;BME280;46995;55.740;37.402;2023-04-27T09:32:14;98912.63;;;19.23;49.20
61109;BME280;46995;55.740;37.402;2023-04-27T09:34:40;98919.25;;;19.34;48.29
61109;BME280;46995;55.740;37.402;2023-04-27T09:37:06;98904.03;;;19.48;49.08
61109;BME280;46995;55.740;37.402;2023-04-27T09:39:32;98915.63;;;19.61;48.77
61109;BME280;46995;55.740;37.402;2023-04-27T09:41:58;98899.53;;;19.74;46.16
61109;BME280;46995;55.740;37.402;2023-04-27T09:44:24;98906.75;;;19.80;46.86
61109;BME280;46995;55.740;37.402;2023-04-27T09:46:50;98898.50;;;19.75;48.11
61109;BME280;46995;55.740;37.402;2023-04-27T09:49:17;98907.78;;;19.60;48.92
61109;BME280;46995;55.740;37.402;2023-04-27T09:51:43;98909.97;;;19.43;47.20
61109;BME280;46995;55.740;37.402;2023-04-27T09:54:08;98901.13;;;19.36;48.33
61109;BME280;46995;55.740;37.402;2023-04-27T10:01:49;98915.72;;;19.27;46.43
61109;BME280;46995;55.740;37.402;2023-04-27T10:06:52;98913.53;;;19.70;47.42
61109;BME280;46995;55.740;37.402;2023-04-27T10:09:22;98905.09;;;19.79;47.15
61109;BME280;46995;55.740;37.402;2023-04-27T10:11:48;98900.75;;;19.85;47.12
61109;BME280;46995;55.740;37.402;2023-04-27T10:14:18;98907.97;;;19.84;45.18
61109;BME280;46995;55.740;37.402;2023-04-27T10:16:44;98917.25;;;19.75;47.49
61109;BME280;46995;55.740;37.402;2023-04-27T10:19:11;98918.28;;;19.74;47.67
61109;BME280;46995;55.740;37.402;2023-04-27T10:21:37;98906.56;;;19.82;46.07
61109;BME280;46995;55.740;37.402;2023-04-27T10:24:06;98909.22;;;19.95;47.32
61109;BME280;46995;55.740;37.402;2023-04-27T10:26:33;98914.56;;;19.95;46.62
61109;BME280;46995;55.740;37.402;2023-04-27T10:31:50;98916.84;;;19.72;46.67
61109;BME280;46995;55.740;37.402;2023-04-27T10:34:17;98917.66;;;19.66;45.03
61109;BME280;46995;55.740;37.402;2023-04-27T10:36:43;98920.13;;;19.61;46.13
61109;BME280;46995;55.740;37.402;2023-04-27T10:39:19;98925.88;;;19.58;45.90
61109;BME280;46995;55.740;37.402;2023-04-27T10:41:54;98939.72;;;19.61;46.41
61109;BME280;46995;55.740;37.402;2023-04-27T10:44:24;98928.34;;;19.53;45.58
61109;BME280;46995;55.740;37.402;2023-04-27T10:46:51;98942.81;;;19.52;46.55
61109;BME280;46995;55.740;37.402;2023-04-27T10:49:17;98935.16;;;19.49;46.21
61109;BME280;46995;55.740;37.402;2023-04-27T10:51:43;98935.94;;;19.42;45.24
61109;BME280;46995;55.740;37.402;2023-04-27T10:54:10;98921.31;;;19.38;44.67
61109;BME280;46995;55.740;37.402;2023-04-27T10:56:35;98921.31;;;19.38;45.44
61109;BME280;46995;55.740;37.402;2023-04-27T10:59:01;98922.53;;;19.42;44.41
61109;BME280;46995;55.740;37.402;2023-04-27T11:01:27;98922.59;;;19.49;45.27
61109;BME280;46995;55.740;37.402;2023-04-27T11:03:57;98924.47;;;19.62;44.57
61109;BME280;46995;55.740;37.402;2023-04-27T11:06:23;98918.50;;;19.86;45.24
61109;BME280;46995;55.740;37.402;2023-04-27T11:08:48;98920.97;;;20.07;44.00
61109;BME280;46995;55.740;37.402;2023-04-27T11:11:14;98918.88;;;20.22;44.52
61109;BME280;46995;55.740;37.402;2023-04-27T11:13:41;98917.66;;;20.32;44.20
61109;BME280;46995;55.740;37.402;2023-04-27T11:16:09;98926.28;;;20.27;44.71
61109;BME280;46995;55.740;37.402;2023-04-27T11:18:38;98926.72;;;20.11;44.77
61109;BME280;46995;55.740;37.402;2023-04-27T11:21:10;98925.53;;;19.94;43.62
61109;BME280;46995;55.740;37.402;2023-04-27T11:23:36;98930.47;;;19.77;45.18
61109;BME280;46995;55.740;37.402;2023-04-27T11:26:11;98923.44;;;19.69;45.70
61109;BME280;46995;55.740;37.402;2023-04-27T11:28:39;98930.22;;;19.59;45.45
61109;BME280;46995;55.740;37.402;2023-04-27T11:31:05;98936.38;;;19.53;45.87
61109;BME280;46995;55.740;37.402;2023-04-27T11:33:31;98933.31;;;19.56;45.80
61109;BME280;46995;55.740;37.402;2023-04-27T11:35:57;98934.38;;;19.68;45.45
61109;BME280;46995;55.740;37.402;2023-04-27T11:38:23;98934.16;;;19.89;45.96
61109;BME280;46995;55.740;37.402;2023-04-27T11:41:05;98933.53;;;20.13;45.67
61109;BME280;46995;55.740;37.402;2023-04-27T11:43:31;98924.66;;;20.39;43.89
61109;BME280;46995;55.740;37.402;2023-04-27T11:45:57;98928.28;;;20.71;43.86
61109;BME280;46995;55.740;37.402;2023-04-27T11:48:24;98922.63;;;20.92;43.47
61109;BME280;46995;55.740;37.402;2023-04-27T11:50:51;98923.41;;;20.99;43.73
61109;BME280;46995;55.740;37.402;2023-04-27T11:53:27;98924.47;;;20.98;43.54
61109;BME280;46995;55.740;37.402;2023-04-27T11:55:53;98920.72;;;20.99;42.74
61109;BME280;46995;55.740;37.402;2023-04-27T11:58:19;98926.72;;;21.01;42.32
61109;BME280;46995;55.740;37.402;2023-04-27T12:00:48;98926.25;;;21.11;43.86
61109;BME280;46995;55.740;37.402;2023-04-27T12:03:14;98922.72;;;21.24;42.66
61109;BME280;46995;55.740;37.402;2023-04-27T12:05:49;98913.63;;;21.25;40.34
61109;BME280;46995;55.740;37.402;2023-04-27T12:08:15;98909.88;;;21.26;41.97
61109;BME280;46995;55.740;37.402;2023-04-27T12:10:41;98908.00;;;22.14;42.13
61109;BME280;46995;55.740;37.402;2023-04-27T12:13:09;98905.31;;;23.35;39.11
61109;BME280;46995;55.740;37.402;2023-04-27T12:15:51;98896.44;;;24.69;36.75
61109;BME280;46995;55.740;37.402;2023-04-27T12:18:17;98900.03;;;25.88;36.19
61109;BME280;46995;55.740;37.402;2023-04-27T12:20:42;98911.75;;;26.65;36.47
61109;BME280;46995;55.740;37.402;2023-04-27T12:23:08;98897.00;;;26.56;35.51
61109;BME280;46995;55.740;37.402;2023-04-27T12:25:34;98906.25;;;26.22;34.30
61109;BME280;46995;55.740;37.402;2023-04-27T12:28:00;98894.38;;;25.89;37.75
61109;BME280;46995;55.740;37.402;2023-04-27T12:30:26;98893.78;;;25.54;36.67
61109;BME280;46995;55.740;37.402;2023-04-27T12:32:52;98897.28;;;25.38;36.34
61109;BME280;46995;55.740;37.402;2023-04-27T12:35:18;98906.63;;;24.90;37.25
61109;BME280;46995;55.740;37.402;2023-04-27T12:37:43;98900.09;;;24.39;37.54
61109;BME280;46995;55.740;37.402;2023-04-27T12:40:09;98896.56;;;23.92;35.81
61109;BME280;46995;55.740;37.402;2023-04-27T12:42:35;98890.06;;;23.58;39.24
61109;BME280;46995;55.740;37.402;2023-04-27T12:45:00;98884.44;;;23.30;38.80
61109;BME280;46995;55.740;37.402;2023-04-27T12:47:26;98878.47;;;22.98;38.66
61109;BME280;46995;55.740;37.402;2023-04-27T12:49:52;98888.59;;;22.66;39.72
61109;BME280;46995;55.740;37.402;2023-04-27T12:52:18;98891.56;;;22.40;39.20
61109;BME280;46995;55.740;37.402;2023-04-27T12:54:43;98890.81;;;22.15;39.36
61109;BME280;46995;55.740;37.402;2023-04-27T12:57:09;98884.94;;;22.00;40.15
61109;BME280;46995;55.740;37.402;2023-04-27T12:59:34;98889.41;;;21.87;40.18